createdAt,value
2018-04-12T08:26:41.460Z,12.23
2018-04-12T08:28:44.789Z,12.53
2018-04-12T08:30:47.978Z,11.33
2018-04-12T08:32:52.164Z,11.50
2018-04-12T08:34:55.328Z,11.73
2018-04-12T08:36:58.502Z,11.57
2018-04-12T08:39:02.457Z,11.20
2018-04-12T08:41:05.706Z,11.23
2018-04-12T08:43:08.988Z,12.37
2018-04-12T08:45:12.342Z,10.30
2018-04-12T08:47:15.745Z,12.00
2018-04-12T08:49:18.912Z,12.17
2018-04-12T08:51:22.114Z,11.40
2018-04-12T08:53:26.257Z,10.83
2018-04-12T08:55:29.434Z,11.43
2018-04-12T08:57:33.941Z,11.03
2018-04-12T08:59:37.123Z,11.43
2018-04-12T09:01:40.282Z,11.30
2018-04-12T09:03:50.615Z,10.73
2018-04-12T09:05:54.611Z,10.03
2018-04-12T09:07:57.904Z,10.93
2018-04-12T09:10:01.953Z,11.10
2018-04-12T09:12:05.126Z,11.07
2018-04-12T09:14:08.400Z,11.03
2018-04-12T09:16:12.473Z,10.37
2018-04-12T09:18:15.710Z,11.43
2018-04-12T09:20:18.840Z,11.30
2018-04-12T09:22:21.982Z,9.83
2018-04-12T09:24:25.837Z,11.50
2018-04-12T09:26:30.046Z,11.17
2018-04-12T09:28:33.969Z,11.20
2018-04-12T09:30:38.140Z,10.83
2018-04-12T09:32:43.968Z,11.53
2018-04-12T09:34:47.743Z,11.70
2018-04-12T09:36:51.736Z,11.53
2018-04-12T09:38:54.965Z,10.63
2018-04-12T09:40:58.111Z,12.30
2018-04-12T09:43:02.014Z,11.97
2018-04-12T09:45:06.481Z,11.93
2018-04-12T09:47:10.935Z,11.57
2018-04-12T09:49:16.043Z,12.67
2018-04-12T09:51:20.244Z,12.20
2018-04-12T09:53:28.630Z,11.40
2018-04-12T09:55:35.811Z,12.20
2018-04-12T09:57:39.026Z,11.70
2018-04-12T09:59:43.687Z,11.60
2018-04-12T10:04:14.586Z,12.03
2018-04-12T10:06:23.012Z,11.30
2018-04-12T10:08:29.817Z,12.07
2018-04-12T10:10:33.970Z,12.40
2018-04-12T10:12:37.182Z,13.73
2018-04-12T10:14:40.515Z,13.03
2018-04-12T10:16:44.487Z,12.47
2018-04-12T10:18:47.671Z,13.20
2018-04-12T10:20:50.791Z,12.90
2018-04-12T10:22:54.702Z,13.53
2018-04-12T10:24:58.634Z,13.83
2018-04-12T10:27:01.929Z,13.03
2018-04-12T10:29:05.105Z,14.60
2018-04-12T10:31:08.235Z,14.47
2018-04-12T10:33:12.178Z,14.33
2018-04-12T10:35:16.124Z,14.00
2018-04-12T10:37:19.297Z,13.23
2018-04-12T10:39:22.526Z,13.77
2018-04-12T10:41:25.687Z,14.00
2018-04-12T10:43:28.845Z,14.97
2018-04-12T10:45:32.660Z,14.90
2018-04-12T10:47:36.240Z,13.50
2018-04-12T10:49:39.391Z,13.77
2018-04-12T10:51:42.549Z,14.53
2018-04-12T10:53:45.763Z,14.80
2018-04-12T10:55:48.920Z,14.90
2018-04-12T10:57:52.121Z,13.90
2018-04-12T10:59:55.244Z,14.80
2018-04-12T11:01:58.484Z,15.77
2018-04-12T11:04:01.645Z,13.87
2018-04-12T11:06:05.654Z,15.23
2018-04-12T11:08:08.943Z,14.50
2018-04-12T11:10:12.368Z,15.50
2018-04-12T11:12:15.580Z,15.27
2018-04-12T11:14:18.706Z,15.17
2018-04-12T11:16:21.998Z,16.03
2018-04-12T11:18:25.235Z,14.10
2018-04-12T11:20:28.505Z,15.47
2018-04-12T11:22:31.725Z,16.17
2018-04-12T11:24:35.655Z,16.03
2018-04-12T11:26:38.827Z,15.47
2018-04-12T11:28:41.998Z,15.53
2018-04-12T11:30:45.983Z,17.47
2018-04-12T11:32:49.168Z,14.87
2018-04-12T11:34:52.383Z,15.33
2018-04-12T11:36:56.283Z,15.73
2018-04-12T11:39:00.192Z,15.83
2018-04-12T11:41:04.145Z,16.30
2018-04-12T11:43:07.382Z,17.57
2018-04-12T11:45:11.305Z,17.20
2018-04-12T11:47:14.453Z,17.40
2018-04-12T11:49:17.675Z,17.10
2018-04-12T11:51:20.816Z,17.83
2018-04-12T11:53:24.085Z,17.87
2018-04-12T11:55:27.377Z,17.17
2018-04-12T11:57:30.584Z,15.80
2018-04-12T11:59:33.835Z,17.97
2018-04-12T12:01:36.991Z,16.50
2018-04-12T12:03:40.960Z,18.20
2018-04-12T12:05:44.194Z,18.23
2018-04-12T12:07:48.013Z,18.07
2018-04-12T12:09:51.227Z,18.03
2018-04-12T12:11:54.740Z,18.80
2018-04-12T12:13:57.932Z,18.80
2018-04-12T12:16:01.147Z,18.23
2018-04-12T12:18:05.067Z,18.60
2018-04-12T12:20:08.217Z,19.50
2018-04-12T12:22:11.420Z,19.50
2018-04-12T12:24:15.388Z,19.80
2018-04-12T12:26:18.590Z,19.83
2018-04-12T12:28:21.728Z,19.57
2018-04-12T12:30:24.887Z,20.03
2018-04-12T12:32:28.822Z,19.50
2018-04-12T12:34:32.721Z,20.33
2018-04-12T12:36:35.882Z,19.77
2018-04-12T12:38:39.868Z,19.43
2018-04-12T12:40:43.041Z,20.70
2018-04-12T12:42:46.226Z,20.60
2018-04-12T12:44:49.498Z,20.50
2018-04-12T12:46:52.716Z,21.80
2018-04-12T12:49:05.816Z,20.80
2018-04-12T12:51:13.388Z,17.20
2018-04-12T12:53:16.568Z,18.10
2018-04-12T12:55:19.719Z,17.50
2018-04-12T12:57:27.619Z,17.47
2018-04-12T12:59:31.568Z,15.57
2018-04-12T13:01:34.697Z,16.50
2018-04-12T13:03:38.609Z,16.67
2018-04-12T13:05:42.542Z,16.90
2018-04-12T13:07:45.697Z,17.03
2018-04-12T13:09:49.654Z,16.97
2018-04-12T13:11:52.844Z,17.60
2018-04-12T13:13:56.050Z,16.90
2018-04-12T13:16:00.211Z,19.00
2018-04-12T13:18:03.417Z,17.40
2018-04-12T13:20:06.752Z,17.40
2018-04-12T13:22:09.884Z,17.00
2018-04-12T13:24:13.052Z,18.13
2018-04-12T13:26:17.933Z,17.30
2018-04-12T13:28:21.113Z,18.47
2018-04-12T13:30:24.259Z,17.87
2018-04-12T13:32:27.483Z,16.50
2018-04-12T13:34:30.607Z,16.20
2018-04-12T13:36:34.663Z,17.83
2018-04-12T13:38:37.892Z,17.43
2018-04-12T13:40:41.022Z,15.83
2018-04-12T13:42:44.165Z,18.50
2018-04-12T13:44:47.355Z,15.73
2018-04-12T13:46:50.509Z,17.63
2018-04-12T13:48:53.688Z,17.17
2018-04-12T13:50:56.943Z,17.30
2018-04-12T13:53:00.835Z,18.07
2018-04-12T13:55:04.040Z,17.20
2018-04-12T13:57:07.338Z,18.63
2018-04-12T13:59:10.482Z,18.07
2018-04-12T14:01:14.418Z,17.40
2018-04-12T14:03:17.596Z,19.23
2018-04-12T14:05:20.763Z,18.00
2018-04-12T14:07:25.401Z,19.43
2018-04-12T14:09:28.631Z,18.73
2018-04-12T14:11:31.816Z,18.77
2018-04-12T14:13:35.090Z,18.57
2018-04-12T14:15:38.244Z,19.47
2018-04-12T14:17:42.154Z,19.93
2018-04-12T14:19:45.391Z,19.57
2018-04-12T14:21:48.517Z,18.87
2018-04-12T14:23:51.675Z,17.10
2018-04-12T14:25:54.819Z,16.97
2018-04-12T14:27:58.043Z,17.33
2018-04-12T14:30:01.192Z,17.37
2018-04-12T14:32:04.396Z,16.90
2018-04-12T14:34:07.585Z,15.67
2018-04-12T14:36:10.799Z,16.80
2018-04-12T14:38:13.923Z,17.20
2018-04-12T14:40:17.081Z,16.80
2018-04-12T14:42:20.286Z,16.27
2018-04-12T14:44:24.219Z,15.20
2018-04-12T14:46:27.413Z,15.53
2018-04-12T14:48:30.643Z,15.23
2018-04-12T14:50:33.839Z,17.83
2018-04-12T14:52:38.281Z,18.07
2018-04-12T14:54:44.692Z,17.40
2018-04-12T14:56:48.020Z,13.53
2018-04-12T14:58:52.536Z,16.67
2018-04-12T15:00:57.170Z,15.27
2018-04-12T15:03:00.407Z,15.80
2018-04-12T15:05:03.735Z,14.87
2018-04-12T15:07:07.641Z,15.87
2018-04-12T15:09:21.576Z,15.00
2018-04-12T15:11:34.754Z,15.03
2018-04-12T15:14:17.873Z,14.40
2018-04-12T15:16:27.112Z,15.30
2018-04-12T15:18:36.036Z,15.43
2018-04-12T15:20:39.173Z,15.77
2018-04-12T15:22:42.946Z,15.53
2018-04-12T15:24:47.951Z,15.17
2018-04-12T15:26:54.932Z,14.90
2018-04-12T15:28:58.141Z,14.50
2018-04-12T15:31:02.036Z,13.17
2018-04-12T15:33:05.236Z,13.13
2018-04-12T15:35:09.193Z,14.73
2018-04-12T15:37:12.368Z,14.30
2018-04-12T15:39:15.513Z,15.63
2018-04-12T15:41:19.412Z,14.23
2018-04-12T15:43:23.346Z,14.53
2018-04-12T15:45:26.545Z,14.53
2018-04-12T15:47:29.754Z,14.30
2018-04-12T15:49:32.996Z,15.23
2018-04-12T15:51:36.284Z,14.20
2018-04-12T15:53:39.575Z,14.37
2018-04-12T15:55:43.512Z,13.50
2018-04-12T15:57:46.670Z,13.07
2018-04-12T15:59:50.618Z,13.17
2018-04-12T16:01:54.054Z,12.77
2018-04-12T16:03:58.018Z,11.63
2018-04-12T16:06:01.177Z,12.60
2018-04-12T16:08:04.335Z,12.10
2018-04-12T16:10:07.575Z,12.37
2018-04-12T16:12:10.763Z,12.03
2018-04-12T16:14:14.056Z,11.77
2018-04-12T16:16:17.239Z,11.83
2018-04-12T16:18:20.416Z,11.90
2018-04-12T16:20:23.613Z,12.07
2018-04-12T16:22:26.720Z,10.93
2018-04-12T16:24:29.876Z,12.57
2018-04-12T16:26:33.039Z,12.00
2018-04-12T16:28:36.183Z,12.00
2018-04-12T16:30:39.351Z,10.70
2018-04-12T16:32:42.496Z,10.70
2018-04-12T16:34:45.670Z,12.73
2018-04-12T16:36:48.811Z,11.43
2018-04-12T16:38:51.996Z,12.83
2018-04-12T16:40:55.961Z,11.53
2018-04-12T16:42:59.125Z,12.70
2018-04-12T16:45:02.355Z,12.17
2018-04-12T16:47:05.497Z,13.27
2018-04-12T16:49:09.413Z,13.00
2018-04-12T16:51:12.538Z,10.57
2018-04-12T16:53:16.502Z,10.70
2018-04-12T16:55:20.592Z,10.77
2018-04-12T16:57:24.565Z,11.83
2018-04-12T16:59:27.841Z,10.60
2018-04-12T17:01:31.027Z,10.97
2018-04-12T17:03:34.289Z,14.63
2018-04-12T17:05:38.242Z,15.80
2018-04-12T17:07:41.410Z,16.80
2018-04-12T17:09:44.680Z,18.07
2018-04-12T17:11:47.836Z,17.87
2018-04-12T17:13:51.871Z,17.53
2018-04-12T17:15:55.067Z,17.37
2018-04-12T17:17:58.233Z,18.53
2018-04-12T17:20:01.447Z,16.90
2018-04-12T17:22:04.617Z,17.80
2018-04-12T17:24:07.924Z,17.93
2018-04-12T17:26:11.191Z,18.70
2018-04-12T17:28:14.471Z,18.10
2018-04-12T17:30:17.695Z,16.90
2018-04-12T17:32:20.889Z,16.43
2018-04-12T17:34:24.120Z,15.50
2018-04-12T17:36:27.327Z,14.70
2018-04-12T17:38:30.511Z,14.73
2018-04-12T17:40:33.662Z,14.80
2018-04-12T17:42:36.790Z,15.53
2018-04-12T17:44:40.604Z,14.50
2018-04-12T17:46:43.841Z,15.00
2018-04-12T17:48:46.958Z,13.53
2018-04-12T17:50:50.158Z,14.00
2018-04-12T17:52:53.304Z,12.73
2018-04-12T17:54:57.333Z,11.87
2018-04-12T17:57:00.500Z,12.07
2018-04-12T17:59:03.613Z,13.07
2018-04-12T18:01:06.748Z,11.80
2018-04-12T18:03:09.889Z,12.47
2018-04-12T18:05:13.033Z,13.30
2018-04-12T18:07:17.671Z,12.33
2018-04-12T18:09:21.505Z,11.20
2018-04-12T18:11:24.666Z,12.43
2018-04-12T18:13:27.804Z,12.03
2018-04-12T18:15:31.053Z,13.00
2018-04-12T18:17:34.178Z,12.00
2018-04-12T18:19:37.309Z,11.53
2018-04-12T18:21:41.207Z,12.23
2018-04-12T18:23:44.358Z,12.43
2018-04-12T18:25:47.553Z,13.23
2018-04-12T18:27:50.819Z,12.37
2018-04-12T18:29:54.973Z,11.97
2018-04-12T18:31:59.019Z,12.57
2018-04-12T18:34:02.153Z,11.60
2018-04-12T18:36:06.093Z,11.37
2018-04-12T18:38:09.263Z,10.77
2018-04-12T18:40:13.184Z,10.17
2018-04-12T18:42:16.358Z,10.33
2018-04-12T18:44:19.539Z,11.20
2018-04-12T18:46:22.765Z,9.40
2018-04-12T18:48:25.990Z,9.40
2018-04-12T18:50:29.151Z,10.13
2018-04-12T18:52:33.222Z,9.10
2018-04-12T18:54:37.117Z,9.37
2018-04-12T18:56:41.146Z,8.97
2018-04-12T18:58:44.450Z,9.40
2018-04-12T19:00:47.590Z,9.13
2018-04-12T19:02:51.522Z,8.73
2018-04-12T19:04:54.682Z,10.70
2018-04-12T19:06:58.660Z,10.60
2018-04-12T19:09:01.828Z,11.57
2018-04-12T19:11:05.054Z,12.80
2018-04-12T19:13:09.104Z,11.77
2018-04-12T19:15:12.343Z,12.10
2018-04-12T19:17:16.384Z,12.47
2018-04-12T19:19:20.429Z,12.43
2018-04-12T19:21:23.635Z,11.93
2018-04-12T19:23:27.103Z,12.10
2018-04-12T19:25:30.254Z,12.83
2018-04-12T19:27:33.504Z,12.33
2018-04-12T19:29:36.773Z,12.27
2018-04-12T19:31:39.933Z,12.17
2018-04-12T19:33:43.118Z,12.60
2018-04-12T19:35:46.336Z,12.43
2018-04-12T19:37:50.207Z,12.13
2018-04-12T19:39:53.401Z,13.07
2018-04-12T19:41:56.660Z,11.53
2018-04-12T19:43:59.891Z,11.53
2018-04-12T19:46:03.018Z,11.53
2018-04-12T19:48:06.321Z,10.73
2018-04-12T19:50:09.568Z,10.33
2018-04-12T19:52:13.636Z,10.00
2018-04-12T19:54:17.284Z,10.50
2018-04-12T19:56:21.354Z,10.40
2018-04-12T19:58:25.300Z,10.67
2018-04-12T20:00:28.834Z,10.47
2018-04-12T20:02:32.062Z,10.20
2018-04-12T20:04:35.270Z,10.10
2018-04-12T20:06:38.645Z,10.83
2018-04-12T20:08:41.794Z,9.53
2018-04-12T20:10:45.657Z,10.20
2018-04-12T20:12:49.663Z,10.93
2018-04-12T20:14:52.855Z,10.17
2018-04-12T20:16:56.873Z,9.30
2018-04-12T20:19:00.101Z,10.17
2018-04-12T20:21:03.267Z,9.63
2018-04-12T20:23:07.709Z,10.17
2018-04-12T20:25:11.514Z,10.17
2018-04-12T20:27:14.687Z,9.80
2018-04-12T20:29:17.929Z,9.83
2018-04-12T20:31:21.853Z,10.23
2018-04-12T20:33:25.824Z,10.60
2018-04-12T20:35:28.978Z,10.27
2018-04-12T20:37:32.177Z,9.67
2018-04-12T20:39:35.343Z,9.50
2018-04-12T20:41:39.176Z,9.83
2018-04-12T20:43:42.397Z,10.53
2018-04-12T20:45:45.512Z,9.83
2018-04-12T20:47:48.744Z,10.07
2018-04-12T20:49:51.842Z,10.03
2018-04-12T20:51:55.769Z,10.93
2018-04-12T20:53:59.670Z,9.50
2018-04-12T20:56:03.579Z,10.17
2018-04-12T20:58:07.490Z,9.73
2018-04-12T21:00:10.684Z,10.37
2018-04-12T21:02:13.875Z,10.13
2018-04-12T21:04:17.007Z,10.27
2018-04-12T21:06:20.283Z,10.83
2018-04-12T21:08:23.440Z,11.20
2018-04-12T21:10:26.671Z,9.93
2018-04-12T21:12:29.820Z,9.97
2018-04-12T21:14:33.000Z,10.23
2018-04-12T21:16:36.134Z,10.07
2018-04-12T21:18:39.245Z,10.57
2018-04-12T21:20:43.195Z,10.97
2018-04-12T21:22:46.341Z,9.87
2018-04-12T21:24:49.480Z,10.03
2018-04-12T21:26:52.621Z,11.07
2018-04-12T21:31:06.088Z,10.10
2018-04-12T21:33:09.848Z,12.40
2018-04-12T21:35:13.010Z,11.77
2018-04-12T21:37:16.209Z,12.13
2018-04-12T21:39:20.295Z,11.97
2018-04-12T21:41:23.444Z,12.87
2018-04-12T21:43:26.590Z,13.33
2018-04-12T21:45:29.887Z,13.23
2018-04-12T21:47:33.092Z,12.40
2018-04-12T21:49:36.231Z,12.87
2018-04-12T21:51:39.365Z,12.97
2018-04-12T21:53:42.542Z,12.83
2018-04-12T21:55:46.475Z,13.00
2018-04-12T21:57:49.640Z,12.27
2018-04-12T21:59:53.171Z,11.97
2018-04-12T22:01:56.377Z,12.17
2018-04-12T22:03:59.509Z,11.57
2018-04-12T22:06:02.752Z,11.70
2018-04-12T22:08:05.899Z,11.07
2018-04-12T22:10:09.069Z,10.97
2018-04-12T22:12:12.329Z,11.10
2018-04-12T22:14:15.450Z,10.30
2018-04-12T22:16:18.653Z,10.37
2018-04-12T22:18:21.787Z,10.53
2018-04-12T22:20:25.902Z,9.83
2018-04-12T22:22:29.853Z,10.53
2018-04-12T22:24:33.012Z,10.27
2018-04-12T22:26:43.608Z,10.10
2018-04-12T22:28:46.853Z,9.60
2018-04-12T22:30:49.997Z,9.47
2018-04-12T22:32:53.143Z,9.00
2018-04-12T22:34:56.308Z,9.53
2018-04-12T22:37:00.196Z,9.33
2018-04-12T22:39:04.087Z,9.07
2018-04-12T22:41:07.232Z,9.93
2018-04-12T22:43:10.429Z,9.93
2018-04-12T22:45:13.565Z,8.90
2018-04-12T22:47:17.469Z,8.47
2018-04-12T22:49:21.386Z,9.00
2018-04-12T22:51:24.535Z,9.20
2018-04-12T22:53:28.489Z,9.57
2018-04-12T22:55:31.650Z,8.73
2018-04-12T22:57:34.757Z,9.37
2018-04-12T22:59:37.885Z,8.90
2018-04-12T23:01:41.069Z,9.83
2018-04-12T23:03:44.243Z,9.07
2018-04-12T23:05:47.375Z,9.43
2018-04-12T23:07:51.290Z,8.63
2018-04-12T23:09:55.202Z,8.57
2018-04-12T23:11:58.421Z,9.93
2018-04-12T23:14:01.549Z,9.20
2018-04-12T23:16:04.693Z,9.03
2018-04-12T23:18:07.923Z,8.87
2018-04-12T23:20:11.071Z,9.37
2018-04-12T23:22:14.195Z,8.70
2018-04-12T23:24:17.367Z,9.00
2018-04-12T23:26:21.325Z,8.93
2018-04-12T23:28:25.181Z,9.13
2018-04-12T23:30:28.387Z,9.07
2018-04-12T23:32:32.532Z,8.43
2018-04-12T23:34:35.718Z,8.53
2018-04-12T23:36:38.996Z,8.67
2018-04-12T23:38:42.208Z,8.80
2018-04-12T23:40:45.384Z,8.80
2018-04-12T23:42:48.600Z,9.00
2018-04-12T23:44:51.775Z,9.00
2018-04-12T23:46:54.985Z,9.13
2018-04-12T23:48:58.226Z,8.93
2018-04-12T23:51:01.367Z,9.53
2018-04-12T23:53:04.676Z,8.97
2018-04-12T23:55:07.966Z,9.30
2018-04-12T23:57:11.097Z,9.13
2018-04-12T23:59:14.297Z,8.97
